OTTER BROOK LAKE : From 06/27/2020 16:00 to 07/11/2020 21:00

Date STAGE [FT] FLOW [CFS] LAKE ELEVATION [FT] PRECIPITATION INCREMENT [IN] AIR TEMPERATURE [DEGF]
07/11/2020 11:00 -- -- -- 0.00 --
07/11/2020 10:00 6.03 -- 19.48 0.00 86.4
07/11/2020 09:00 6.04 18.7 19.50 0.00 84.0
07/11/2020 08:00 6.04 18.7 19.51 0.00 83.4
07/11/2020 07:00 6.04 18.7 19.51 0.00 79.8
07/11/2020 06:00 6.04 18.7 19.51 0.00 75.2
07/11/2020 05:00 6.05 19.3 19.51 0.00 73.5
07/11/2020 04:00 6.05 19.3 19.52 0.02 73.0
07/11/2020 03:00 6.05 19.3 19.52 0.01 73.0
07/11/2020 02:00 6.05 19.3 19.51 0.00 72.8
07/11/2020 01:00 6.05 19.3 19.51 0.01 73.1
07/11/2020 00:00 6.06 19.9 19.52 0.00 73.3
07/10/2020 23:00 6.06 19.9 19.53 0.00 73.4
07/10/2020 22:00 6.07 20.6 19.54 0.00 73.8
07/10/2020 21:00 6.07 20.6 19.54 0.22 73.5
07/10/2020 20:00 6.06 19.9 19.52 0.00 73.7
07/10/2020 19:00 6.07 20.6 19.53 0.00 73.5
07/10/2020 18:00 6.07 20.6 19.54 0.01 73.5
07/10/2020 17:00 6.07 20.6 19.54 0.00 74.0
07/10/2020 16:00 6.08 21.3 19.55 0.00 74.6
07/10/2020 15:00 6.08 21.3 19.55 0.20 75.1
07/10/2020 14:00 6.07 20.6 19.54 0.00 78.6
07/10/2020 13:00 6.08 21.3 19.54 0.01 79.9
07/10/2020 12:00 6.07 20.6 19.55 0.00 85.8
07/10/2020 11:00 6.08 21.3 19.55 0.00 85.5
07/10/2020 10:00 6.08 21.3 19.55 0.00 86.1
07/10/2020 09:00 6.09 21.9 19.56 0.00 87.2
07/10/2020 08:00 6.09 21.9 19.56 0.00 86.8
07/10/2020 07:00 6.10 22.6 19.58 0.00 84.3
07/10/2020 06:00 6.10 22.6 19.58 0.00 82.8
07/10/2020 05:00 6.10 22.6 19.59 0.00 79.3
07/10/2020 04:00 6.10 22.6 19.59 0.00 75.4
07/10/2020 03:00 6.11 23.3 19.60 0.00 72.6
07/10/2020 02:00 6.11 23.3 19.60 0.00 70.8
07/10/2020 01:00 6.12 24.0 19.61 0.00 69.8
07/10/2020 00:00 6.13 24.7 19.62 0.00 70.7
07/09/2020 23:00 6.13 24.7 19.62 0.00 71.7
07/09/2020 22:00 6.13 24.7 19.62 0.00 72.8
07/09/2020 21:00 6.14 25.4 19.63 0.00 73.4
07/09/2020 20:00 6.14 25.4 19.63 0.00 73.9
07/09/2020 19:00 6.14 25.4 19.63 0.00 75.1
07/09/2020 18:00 6.14 25.4 19.64 0.00 75.5
07/09/2020 17:00 6.15 26.2 19.64 0.00 77.6
07/09/2020 16:00 6.15 26.2 19.65 0.00 79.7
07/09/2020 15:00 6.15 26.2 19.65 0.00 84.2
07/09/2020 14:00 6.15 26.2 19.65 0.00 86.6
07/09/2020 13:00 6.15 26.2 19.66 0.00 89.5
07/09/2020 12:00 6.15 26.2 19.66 0.00 87.4
07/09/2020 11:00 6.16 26.9 19.66 0.00 91.3
07/09/2020 10:00 6.16 26.9 19.66 0.00 89.8
07/09/2020 09:00 6.16 26.9 19.67 0.00 88.3
07/09/2020 08:00 6.16 26.9 19.67 0.00 84.3
07/09/2020 07:00 6.16 26.9 19.67 0.00 80.0
07/09/2020 06:00 6.16 26.9 19.67 0.00 75.7
07/09/2020 05:00 6.16 26.9 19.67 0.00 72.0
07/09/2020 04:00 6.16 26.9 19.67 0.00 71.2
07/09/2020 03:00 6.16 26.9 19.66 0.00 71.2
07/09/2020 02:00 6.15 26.2 19.66 0.00 70.8
07/09/2020 01:00 6.15 26.2 19.65 0.00 70.4
07/09/2020 00:00 6.14 25.4 19.64 0.00 70.2
07/08/2020 23:00 6.14 25.4 19.63 0.00 70.2
07/08/2020 22:00 6.13 24.7 19.62 0.00 69.4
07/08/2020 21:00 6.12 24.0 19.60 0.00 69.0
07/08/2020 20:00 6.11 23.3 19.59 0.00 69.0
07/08/2020 19:00 6.09 21.9 19.58 0.00 69.4
07/08/2020 18:00 6.08 21.3 19.56 0.00 69.8
07/08/2020 17:00 6.07 20.6 19.54 0.01 71.4
07/08/2020 16:00 6.05 19.3 19.51 0.00 72.4
07/08/2020 15:00 6.03 18.1 19.50 0.00 73.5
07/08/2020 14:00 6.01 16.9 19.49 0.59 70.2
07/08/2020 13:00 -- -- 19.41 1.28 68.2
07/08/2020 12:00 -- -- 19.30 0.00 84.8
07/08/2020 11:00 5.87 10.0 19.29 0.00 85.3
07/08/2020 10:00 5.87 10.0 19.30 0.00 86.5
07/08/2020 09:00 -- -- 19.32 0.00 86.9
07/08/2020 08:00 5.87 10.0 19.30 0.00 83.3
07/08/2020 07:00 5.88 10.4 19.32 0.00 79.6
07/08/2020 06:00 5.87 10.0 19.32 0.00 76.3
07/08/2020 05:00 5.87 10.0 19.32 0.00 72.5
07/08/2020 04:00 5.88 10.4 19.33 0.00 71.2
07/08/2020 03:00 5.88 10.4 19.32 0.00 70.3
07/08/2020 02:00 5.88 10.4 19.33 0.00 69.7
07/08/2020 01:00 5.89 10.9 19.33 0.00 69.6
07/08/2020 00:00 5.89 10.9 19.33 0.00 69.2
07/07/2020 23:00 5.89 10.9 19.33 0.00 69.8
07/07/2020 22:00 5.89 10.9 19.33 0.00 70.3
07/07/2020 21:00 5.89 10.9 19.33 0.00 71.0
07/07/2020 20:00 5.89 10.9 19.33 0.00 71.2
07/07/2020 19:00 5.89 10.9 19.33 0.00 71.6
07/07/2020 18:00 5.89 10.9 19.33 0.00 72.3
07/07/2020 17:00 5.89 10.9 19.33 0.00 72.3
07/07/2020 16:00 5.89 10.9 19.33 0.00 74.3
07/07/2020 15:00 5.89 10.9 19.33 0.00 76.5
07/07/2020 14:00 5.89 10.9 19.34 0.00 77.6
07/07/2020 13:00 5.90 11.3 19.33 0.00 79.3
07/07/2020 12:00 5.90 11.3 19.35 0.00 80.8
07/07/2020 11:00 5.90 11.3 19.34 0.00 82.0
07/07/2020 10:00 5.90 11.3 19.34 0.00 80.4
07/07/2020 09:00 5.90 11.3 19.34 0.00 79.5
07/07/2020 08:00 5.91 11.8 19.35 0.00 79.4
07/07/2020 07:00 5.91 11.8 19.36 0.00 78.2
07/07/2020 06:00 5.91 11.8 19.35 0.00 75.5
07/07/2020 05:00 5.91 11.8 19.35 0.00 73.2
07/07/2020 04:00 5.91 11.8 19.36 0.00 69.2
07/07/2020 03:00 5.92 12.2 19.36 0.00 64.9
07/07/2020 02:00 5.92 12.2 19.37 0.00 63.8
07/07/2020 01:00 5.92 12.2 19.37 0.00 64.4
07/07/2020 00:00 5.92 12.2 19.37 0.00 66.8
07/06/2020 23:00 5.92 12.2 19.37 0.00 66.3
07/06/2020 22:00 5.92 12.2 19.37 0.00 66.8
07/06/2020 21:00 5.92 12.2 19.37 0.00 66.3
07/06/2020 20:00 5.93 12.7 19.37 0.00 66.9
07/06/2020 19:00 5.93 12.7 19.37 0.00 66.6
07/06/2020 18:00 5.93 12.7 19.37 0.00 68.0
07/06/2020 17:00 5.92 12.2 19.37 0.00 71.5
07/06/2020 16:00 5.92 12.2 19.37 0.00 75.6
07/06/2020 15:00 5.92 12.2 19.37 0.00 80.3
07/06/2020 14:00 5.92 12.2 19.37 0.00 82.9
07/06/2020 13:00 5.92 12.2 19.37 0.00 84.4
07/06/2020 12:00 5.92 12.2 19.38 0.00 85.5
07/06/2020 11:00 5.92 12.2 19.38 0.00 84.2
07/06/2020 10:00 5.93 12.7 19.37 0.00 83.9
07/06/2020 09:00 5.93 12.7 19.37 0.00 84.6
07/06/2020 08:00 5.93 12.7 19.37 0.00 82.5
07/06/2020 07:00 5.93 12.7 19.37 0.00 81.2
07/06/2020 06:00 5.93 12.7 19.37 0.00 77.8
07/06/2020 05:00 5.93 12.7 19.37 0.00 73.9
07/06/2020 04:00 5.93 12.7 19.38 0.00 69.8
07/06/2020 03:00 5.93 12.7 19.38 0.00 61.5
07/06/2020 02:00 5.93 12.7 19.38 0.00 61.1
07/06/2020 01:00 5.93 12.7 19.38 0.00 61.6
07/06/2020 00:00 5.93 12.7 19.38 0.00 62.6
07/05/2020 23:00 5.93 12.7 19.37 0.00 62.4
07/05/2020 22:00 5.93 12.7 19.37 0.00 64.1
07/05/2020 21:00 5.93 12.7 19.37 0.00 64.8
07/05/2020 20:00 5.93 12.7 19.37 0.00 65.4
07/05/2020 19:00 5.93 12.7 19.37 0.00 66.4
07/05/2020 18:00 5.93 12.7 19.39 0.00 68.3
07/05/2020 17:00 5.95 13.7 19.39 0.00 73.0
07/05/2020 16:00 5.93 12.7 19.37 0.00 78.3
07/05/2020 15:00 5.93 12.7 19.38 0.00 79.2
07/05/2020 14:00 5.94 13.2 19.38 0.00 83.6
07/05/2020 13:00 5.94 13.2 19.39 0.00 88.0
07/05/2020 12:00 5.95 13.7 19.39 0.00 89.5
07/05/2020 11:00 5.95 13.7 19.39 0.00 88.8
07/05/2020 10:00 5.95 13.7 19.40 0.00 88.1
07/05/2020 09:00 5.96 14.2 19.40 0.00 86.5
07/05/2020 08:00 5.96 14.2 19.41 0.00 84.6
07/05/2020 07:00 5.96 14.2 19.41 0.00 81.4
07/05/2020 06:00 5.97 14.7 19.42 0.00 77.9
07/05/2020 05:00 5.97 14.7 19.42 0.00 74.2
07/05/2020 04:00 5.97 14.7 19.42 0.00 66.5
07/05/2020 03:00 5.97 14.7 19.43 0.00 62.6
07/05/2020 02:00 5.97 14.7 19.43 0.00 60.8
07/05/2020 01:00 5.98 15.3 19.43 0.00 59.9
07/05/2020 00:00 5.98 15.3 19.44 0.00 60.2
07/04/2020 23:00 5.99 15.8 19.44 0.00 60.9
07/04/2020 22:00 5.99 15.8 19.44 0.00 61.8
07/04/2020 21:00 5.99 15.8 19.44 0.00 62.5
07/04/2020 20:00 5.99 15.8 19.45 0.00 63.6
07/04/2020 19:00 6.00 16.4 19.45 0.00 65.3
07/04/2020 18:00 6.00 16.4 19.46 0.00 66.7
07/04/2020 17:00 6.00 16.4 19.46 0.00 70.2
07/04/2020 16:00 6.00 16.4 19.46 0.00 74.1
07/04/2020 15:00 6.01 16.9 19.46 0.00 79.5
07/04/2020 14:00 6.01 16.9 19.47 0.00 80.2
07/04/2020 13:00 6.02 17.5 19.47 0.00 86.8
07/04/2020 12:00 6.02 17.5 19.47 0.00 86.6
07/04/2020 11:00 6.03 18.1 19.49 0.00 86.8
07/04/2020 10:00 6.03 18.1 19.48 0.00 86.5
07/04/2020 09:00 6.03 18.1 19.49 0.00 84.8
07/04/2020 08:00 6.04 18.7 19.50 0.00 82.4
07/04/2020 07:00 6.04 18.7 19.50 0.00 79.7
07/04/2020 06:00 6.04 18.7 19.50 0.00 77.5
07/04/2020 05:00 6.05 19.3 19.51 0.00 73.1
07/04/2020 04:00 6.05 19.3 19.51 0.00 68.0
07/04/2020 03:00 6.05 19.3 19.51 0.01 64.4
07/04/2020 02:00 6.05 19.3 19.52 0.00 62.6
07/04/2020 01:00 6.06 19.9 19.52 0.00 61.6
07/04/2020 00:00 6.06 19.9 19.53 0.00 60.5
07/03/2020 23:00 6.06 19.9 19.53 0.00 60.9
07/03/2020 22:00 6.07 20.6 19.54 0.00 62.4
07/03/2020 21:00 6.07 20.6 19.54 0.00 64.7
07/03/2020 20:00 6.07 20.6 19.54 0.00 64.0
07/03/2020 19:00 6.07 20.6 19.55 0.00 65.6
07/03/2020 18:00 6.08 21.3 19.55 0.00 67.2
07/03/2020 17:00 6.08 21.3 19.55 0.00 68.4
07/03/2020 16:00 6.08 21.3 19.55 0.00 69.8
07/03/2020 15:00 6.08 21.3 19.56 0.00 71.2
07/03/2020 14:00 6.09 21.9 19.56 0.00 71.7
07/03/2020 13:00 6.08 21.3 19.56 0.00 71.9
07/03/2020 12:00 6.09 21.9 19.58 0.00 70.1
07/03/2020 11:00 6.09 21.9 19.58 0.01 70.8
07/03/2020 10:00 6.09 21.9 19.57 0.00 71.8
07/03/2020 09:00 6.10 22.6 19.59 0.00 73.6
07/03/2020 08:00 6.10 22.6 19.58 0.00 75.8
07/03/2020 07:00 6.10 22.6 19.58 0.00 77.3
07/03/2020 06:00 6.11 23.3 19.60 0.00 77.7
07/03/2020 05:00 6.11 23.3 19.60 0.00 75.5
07/03/2020 04:00 6.12 24.0 19.60 0.00 73.1
07/03/2020 03:00 6.12 24.0 19.61 0.00 70.7
07/03/2020 02:00 6.13 24.7 19.61 0.00 69.2
07/03/2020 01:00 6.13 24.7 19.62 0.00 68.5
07/03/2020 00:00 6.14 25.4 19.62 0.00 69.8
07/02/2020 23:00 6.14 25.4 19.63 0.00 70.6
07/02/2020 22:00 6.14 25.4 19.63 0.00 70.8
07/02/2020 21:00 6.15 26.2 19.63 0.00 72.5
07/02/2020 20:00 6.15 26.2 19.64 0.00 72.6
07/02/2020 19:00 6.15 26.2 19.65 0.00 73.7
07/02/2020 18:00 6.15 26.2 19.65 0.00 75.0
07/02/2020 17:00 6.16 26.9 19.65 0.00 74.7
07/02/2020 16:00 6.16 26.9 19.66 0.00 76.1
07/02/2020 15:00 6.16 26.9 19.66 0.00 80.1
07/02/2020 14:00 6.16 26.9 19.66 0.00 80.2
07/02/2020 13:00 6.17 27.7 19.67 0.00 86.0
07/02/2020 12:00 6.17 27.7 19.67 0.00 85.2
07/02/2020 11:00 6.17 27.7 19.68 0.00 90.8
07/02/2020 10:00 6.17 27.7 19.68 0.00 89.8
07/02/2020 09:00 6.18 28.5 19.68 0.00 86.8
07/02/2020 08:00 6.18 28.5 19.69 0.00 84.0
07/02/2020 07:00 6.18 28.5 19.69 0.00 80.6
07/02/2020 06:00 6.19 29.3 19.69 0.00 75.3
07/02/2020 05:00 6.19 29.3 19.69 0.00 70.6
07/02/2020 04:00 6.19 29.3 19.70 0.00 66.0
07/02/2020 03:00 6.19 29.3 19.70 0.00 63.9
07/02/2020 02:00 6.20 30.1 19.70 0.00 62.8
07/02/2020 01:00 6.20 30.1 19.70 0.00 62.8
07/02/2020 00:00 6.20 30.1 19.70 0.00 62.7
07/01/2020 23:00 6.20 30.1 19.70 0.00 62.4
07/01/2020 22:00 6.19 29.3 19.70 0.00 63.0
07/01/2020 21:00 6.19 29.3 19.70 0.00 63.8
07/01/2020 20:00 6.19 29.3 19.70 0.00 64.3
07/01/2020 19:00 6.19 29.3 19.69 0.00 65.0
07/01/2020 18:00 6.19 29.3 19.69 0.00 66.2
07/01/2020 17:00 6.19 29.3 19.68 0.00 67.1
07/01/2020 16:00 6.18 28.5 19.68 0.00 71.4
07/01/2020 15:00 6.17 27.7 19.67 0.00 73.6
07/01/2020 14:00 6.17 27.7 19.67 0.00 73.2
07/01/2020 13:00 6.16 26.9 19.66 0.00 72.9
07/01/2020 12:00 6.15 26.2 19.66 0.00 74.4
07/01/2020 11:00 6.15 26.2 19.65 0.00 74.2
07/01/2020 10:00 6.15 26.2 19.65 0.00 70.8
07/01/2020 09:00 6.14 25.4 19.64 0.01 72.0
07/01/2020 08:00 6.13 24.7 19.63 0.00 76.8
07/01/2020 07:00 6.13 24.7 19.62 0.01 71.7
07/01/2020 06:00 6.12 24.0 19.61 0.03 67.9
07/01/2020 05:00 6.11 23.3 19.60 0.00 68.7
07/01/2020 04:00 6.11 23.3 19.59 0.00 67.9
07/01/2020 03:00 6.10 22.6 19.58 0.00 66.1
07/01/2020 02:00 6.09 21.9 19.57 0.00 65.3
07/01/2020 01:00 6.09 21.9 19.56 0.01 64.8
07/01/2020 00:00 6.08 21.3 19.55 0.00 65.3
06/30/2020 23:00 6.07 20.6 19.54 0.00 65.1
06/30/2020 22:00 6.06 19.9 19.53 0.02 64.9
06/30/2020 21:00 6.06 19.9 19.52 0.00 65.3
06/30/2020 20:00 6.05 19.3 19.51 0.00 65.1
06/30/2020 19:00 6.04 18.7 19.51 0.31 65.4
06/30/2020 18:00 6.04 18.7 19.50 0.05 65.6
06/30/2020 17:00 6.03 18.1 19.49 0.00 66.0
06/30/2020 16:00 6.02 17.5 19.48 0.01 68.7
06/30/2020 15:00 6.02 17.5 19.47 0.00 71.7
06/30/2020 14:00 6.02 17.5 19.47 0.00 72.9
06/30/2020 13:00 6.01 16.9 19.47 0.00 73.5
06/30/2020 12:00 6.01 16.9 19.47 0.00 74.8
06/30/2020 11:00 6.01 16.9 19.46 0.01 71.9
06/30/2020 10:00 -- -- 19.46 0.00 76.1
06/30/2020 09:00 6.00 16.4 19.46 0.00 76.0
06/30/2020 08:00 6.00 16.4 19.45 0.00 72.2
06/30/2020 07:00 5.99 15.8 19.44 0.00 72.2
06/30/2020 06:00 5.99 15.8 19.44 0.00 68.3
06/30/2020 05:00 5.98 15.3 19.43 0.00 67.9
06/30/2020 04:00 5.97 14.7 19.42 0.00 67.1
06/30/2020 03:00 5.96 14.2 19.42 0.00 65.1
06/30/2020 02:00 5.96 14.2 19.40 0.00 63.3
06/30/2020 01:00 5.95 13.7 19.39 0.00 63.0
06/30/2020 00:00 5.94 13.2 19.38 0.00 63.2
06/29/2020 23:00 5.92 12.2 19.36 0.01 63.5
06/29/2020 22:00 5.91 11.8 19.35 0.00 63.6
06/29/2020 21:00 5.89 10.9 19.33 0.00 63.4
06/29/2020 20:00 5.88 10.4 19.31 0.00 64.2
06/29/2020 19:00 5.86 9.6 19.29 0.00 64.6
06/29/2020 18:00 5.84 8.8 19.27 0.00 64.7
06/29/2020 17:00 5.83 8.4 19.25 0.00 65.1
06/29/2020 16:00 5.81 7.7 19.24 0.00 66.3
06/29/2020 15:00 5.80 7.3 19.22 0.01 67.9
06/29/2020 14:00 5.78 6.7 19.21 0.02 68.9
06/29/2020 13:00 5.77 6.4 19.20 0.07 66.3
06/29/2020 12:00 5.75 5.8 19.17 0.25 70.0
06/29/2020 11:00 5.72 5.0 19.13 0.00 71.0
06/29/2020 10:00 5.71 4.7 19.11 0.00 72.3
06/29/2020 09:00 5.70 4.5 19.10 0.01 69.9
06/29/2020 08:00 5.70 4.5 19.10 0.00 78.3
06/29/2020 07:00 5.69 4.3 19.08 0.00 74.0
06/29/2020 06:00 5.68 4.0 19.08 0.00 73.0
06/29/2020 05:00 5.68 4.0 19.07 0.00 70.5
06/29/2020 04:00 5.67 3.8 19.07 0.00 68.3
06/29/2020 03:00 5.67 3.8 19.07 0.00 66.0
06/29/2020 02:00 5.67 3.8 19.07 0.01 64.9
06/29/2020 01:00 5.67 3.8 19.07 0.00 64.4
06/29/2020 00:00 5.67 3.8 19.07 0.00 64.8
06/28/2020 23:00 5.67 3.8 19.06 0.00 66.0
06/28/2020 22:00 5.67 3.8 19.06 0.01 66.7
06/28/2020 21:00 5.67 3.8 19.06 0.00 66.7
06/28/2020 20:00 5.67 3.8 19.06 0.01 67.9
06/28/2020 19:00 5.67 3.8 19.06 0.00 69.7
06/28/2020 18:00 5.67 3.8 19.05 0.00 70.0
06/28/2020 17:00 5.66 3.6 19.05 0.00 71.8
06/28/2020 16:00 5.67 3.8 19.06 0.00 73.2
06/28/2020 15:00 -- -- 19.05 0.00 75.8
06/28/2020 14:00 -- -- 19.05 0.00 77.1
06/28/2020 13:00 -- -- 19.06 0.00 82.0
06/28/2020 12:00 -- -- 19.05 0.00 79.4
06/28/2020 11:00 -- -- 19.06 0.00 79.0
06/28/2020 10:00 -- -- 19.06 0.00 79.7
06/28/2020 09:00 -- -- 19.06 0.00 78.3
06/28/2020 08:00 -- -- 19.06 0.00 76.1
06/28/2020 07:00 -- -- 19.06 0.00 74.1
06/28/2020 06:00 -- -- 19.06 0.00 74.7
06/28/2020 05:00 -- -- 19.06 0.00 72.3
06/28/2020 04:00 5.66 3.6 19.06 0.00 67.6
06/28/2020 03:00 -- -- 19.06 0.00 63.5
06/28/2020 02:00 5.67 3.8 19.06 0.00 62.2
06/28/2020 01:00 5.66 3.6 19.06 0.00 61.7
06/28/2020 00:00 5.67 3.8 19.07 0.00 61.4
06/27/2020 23:00 5.67 3.8 19.06 0.00 60.9
06/27/2020 22:00 5.67 3.8 19.06 0.00 61.2
06/27/2020 21:00 5.67 3.8 19.06 0.00 62.3
06/27/2020 20:00 5.67 3.8 19.06 0.00 63.0
06/27/2020 19:00 5.67 3.8 19.06 0.00 65.8
06/27/2020 18:00 5.67 3.8 19.06 0.00 66.9
06/27/2020 17:00 5.67 3.8 19.06 0.00 67.7
06/27/2020 16:00 5.67 3.8 19.06 0.00 68.6